Time;durP1;ratioP1;P1;durP2;ratioP2;P2;SDS_P1;SDS_P2;PMS_P1;PMS_P2;Temp;Humidity;BMP_temperature;BMP_pressure;BME280_temperature;BME280_humidity;BME280_pressure;Samples;Min_cycle;Max_cycle;Signal;HPM_P1;HPM_P2
2022/05/07 00:00:32;;;;;;;;;;;;;;;;;;5113747;28;19915;-74
2022/05/07 00:02:58;;;;;;;;;;;;;;;;;;5113746;28;19919;-73
2022/05/07 00:05:24;;;;;;;;;;;;;;;;;;5113770;28;20361;-74
2022/05/07 00:07:49;;;;;;;;;;;;;;;;;;5113611;28;19920;-74
2022/05/07 00:10:15;;;;;;;;;;;;;;;;;;5113329;28;19922;-74
2022/05/07 00:12:40;;;;;;;;;;;;;;;;;;5113686;28;19962;-74
2022/05/07 00:15:06;;;;;;;;;;;;;;;;;;5113218;28;20002;-74
2022/05/07 00:20:15;;;;;;;;;;;;;;;;;;5113581;28;19915;-73
2022/05/07 00:22:41;;;;;;;;;;;;;;;;;;5113626;28;19919;-74
2022/05/07 00:25:06;;;;;;;;;;;;;;;;;;5113106;28;19985;-74
2022/05/07 00:27:31;;;;;;;;;;;;;;;;;;5095370;28;19919;-74
2022/05/07 00:29:57;;;;;;;;;;;;;;;;;;5095461;28;19954;-74
2022/05/07 00:32:22;;;;;;;;;;;;;;;;;;5113104;28;20304;-73
2022/05/07 00:34:48;;;;;;;;;;;;;;;;;;5113651;28;19916;-74
2022/05/07 00:37:13;;;;;;;;;;;;;;;;;;5095425;28;20010;-74
2022/05/07 00:39:38;;;;;;;;;;;;;;;;;;5114598;28;19915;-74
2022/05/07 00:42:04;;;;;;;;;;;;;;;;;;5099000;28;20007;-74
2022/05/07 00:44:30;;;;;;;;;;;;;;;;;;5116785;28;19919;-74
2022/05/07 00:46:58;;;;;;;;;;;;;;;;;;5098866;28;19969;-74
2022/05/07 00:49:24;;;;;;;;;;;;;;;;;;5098457;28;19916;-74
2022/05/07 00:51:49;;;;;;;;;;;;;;;;;;5098674;28;19920;-73
2022/05/07 00:54:17;;;;;;;;;;;;;;;;;;5116735;28;19920;-74
2022/05/07 00:56:43;;;;;;;;;;;;;;;;;;5098100;28;19939;-74
2022/05/07 00:59:09;;;;;;;;;;;;;;;;;;5098528;28;20297;-74
2022/05/07 01:01:34;;;;;;;;;;;;;;;;;;5116498;28;19919;-74
2022/05/07 01:04:00;;;;;;;;;;;;;;;;;;5098677;28;20312;-74
2022/05/07 01:06:30;;;;;;;;;;;;;;;;;;5098347;28;19915;-74
2022/05/07 01:08:56;;;;;;;;;;;;;;;;;;5080925;28;19923;-74
2022/05/07 01:11:22;;;;;;;;;;;;;;;;;;5116567;28;19916;-74
2022/05/07 01:13:52;;;;;;;;;;;;;;;;;;5098325;28;19920;-74
2022/05/07 01:16:17;;;;;;;;;;;;;;;;;;5098248;28;19916;-74
2022/05/07 01:18:43;;;;;;;;;;;;;;;;;;5116631;28;20010;-73
2022/05/07 01:21:14;;;;;;;;;;;;;;;;;;5097969;28;19930;-74
2022/05/07 01:23:42;;;;;;;;;;;;;;;;;;5098081;28;19916;-74
2022/05/07 01:26:08;;;;;;;;;;;;;;;;;;5098092;28;20373;-74
2022/05/07 01:28:35;;;;;;;;;;;;;;;;;;5098114;28;19916;-74
2022/05/07 01:31:03;;;;;;;;;;;;;;;;;;5116216;28;19916;-74
2022/05/07 01:33:30;;;;;;;;;;;;;;;;;;5097913;28;19969;-74
2022/05/07 01:35:55;;;;;;;;;;;;;;;;;;5097809;28;19954;-74
2022/05/07 01:38:21;;;;;;;;;;;;;;;;;;5115141;28;19947;-73
2022/05/07 01:40:47;;;;;;;;;;;;;;;;;;5097740;28;19916;-74
2022/05/07 01:43:12;;;;;;;;;;;;;;;;;;5097861;28;20015;-74
2022/05/07 01:45:39;;;;;;;;;;;;;;;;;;5097749;28;19923;-73
2022/05/07 01:48:11;;;;;;;;;;;;;;;;;;5097574;28;20329;-74
2022/05/07 01:50:42;;;;;;;;;;;;;;;;;;5097072;28;19915;-74
2022/05/07 01:53:08;;;;;;;;;;;;;;;;;;5097000;28;19966;-74
2022/05/07 01:55:34;;;;;;;;;;;;;;;;;;5080163;28;20273;-74
2022/05/07 01:58:00;;;;;;;;;;;;;;;;;;5115883;28;19922;-73
2022/05/07 02:00:25;;;;;;;;;;;;;;;;;;5097560;28;19916;-74
2022/05/07 02:02:51;;;;;;;;;;;;;;;;;;5097305;28;20402;-74
2022/05/07 02:05:23;;;;;;;;;;;;;;;;;;5114670;28;22296;-74
2022/05/07 02:07:48;;;;;;;;;;;;;;;;;;5097064;28;19916;-74
2022/05/07 02:10:15;;;;;;;;;;;;;;;;;;5096680;28;19919;-74
2022/05/07 02:12:40;;;;;;;;;;;;;;;;;;5097240;28;19924;-73
2022/05/07 02:15:06;;;;;;;;;;;;;;;;;;5096880;28;20440;-73
2022/05/07 02:17:33;;;;;;;;;;;;;;;;;;5096946;28;20019;-73
2022/05/07 02:19:58;;;;;;;;;;;;;;;;;;5080294;28;20006;-73
2022/05/07 02:22:24;;;;;;;;;;;;;;;;;;5114659;28;19916;-74
2022/05/07 02:24:50;;;;;;;;;;;;;;;;;;5096977;28;19916;-73
2022/05/07 02:27:21;;;;;;;;;;;;;;;;;;5096965;28;19919;-73
2022/05/07 02:29:46;;;;;;;;;;;;;;;;;;5096763;28;20415;-73
2022/05/07 02:32:13;;;;;;;;;;;;;;;;;;5096971;28;19922;-74
2022/05/07 02:34:42;;;;;;;;;;;;;;;;;;5097472;28;19922;-73
2022/05/07 02:37:14;;;;;;;;;;;;;;;;;;5096157;28;19923;-73
2022/05/07 02:39:41;;;;;;;;;;;;;;;;;;5096568;28;20304;-73
2022/05/07 02:44:51;;;;;;;;;;;;;;;;;;5114381;28;19923;-73
2022/05/07 02:47:17;;;;;;;;;;;;;;;;;;5096545;28;19916;-73
2022/05/07 02:49:42;;;;;;;;;;;;;;;;;;5114710;28;19915;-73
2022/05/07 02:52:11;;;;;;;;;;;;;;;;;;5096423;28;20372;-73
2022/05/07 02:54:37;;;;;;;;;;;;;;;;;;5114171;28;19915;-73
2022/05/07 02:57:02;;;;;;;;;;;;;;;;;;5096301;28;19923;-73
2022/05/07 02:59:28;;;;;;;;;;;;;;;;;;5114656;28;19961;-73
2022/05/07 03:01:53;;;;;;;;;;;;;;;;;;5096170;28;20331;-73
2022/05/07 03:04:19;;;;;;;;;;;;;;;;;;5095496;28;20010;-73
2022/05/07 03:06:44;;;;;;;;;;;;;;;;;;5096271;28;19915;-73
2022/05/07 03:09:10;;;;;;;;;;;;;;;;;;5095563;28;19937;-73
2022/05/07 03:11:36;;;;;;;;;;;;;;;;;;5095955;28;20344;-73
2022/05/07 03:14:02;;;;;;;;;;;;;;;;;;5079409;28;19943;-73
2022/05/07 03:16:28;;;;;;;;;;;;;;;;;;5096221;28;20483;-73
2022/05/07 03:18:54;;;;;;;;;;;;;;;;;;5096216;28;19958;-73
2022/05/07 03:21:20;;;;;;;;;;;;;;;;;;5095971;28;19919;-74
2022/05/07 03:23:46;;;;;;;;;;;;;;;;;;5095952;28;20266;-73
2022/05/07 03:26:12;;;;;;;;;;;;;;;;;;5096113;28;20011;-74
2022/05/07 03:28:38;;;;;;;;;;;;;;;;;;5114158;28;19912;-74
2022/05/07 03:31:03;;;;;;;;;;;;;;;;;;5096130;28;19939;-74
2022/05/07 03:33:29;;;;;;;;;;;;;;;;;;5095906;28;20015;-73
2022/05/07 03:35:54;;;;;;;;;;;;;;;;;;5095966;28;20007;-73
2022/05/07 03:38:20;;;;;;;;;;;;;;;;;;5113378;28;19920;-73
2022/05/07 03:40:54;;;;;;;;;;;;;;;;;;5095681;28;19965;-73
2022/05/07 03:43:23;;;;;;;;;;;;;;;;;;5095859;28;19930;-73
2022/05/07 03:45:48;;;;;;;;;;;;;;;;;;5078839;28;19915;-73
2022/05/07 03:48:14;;;;;;;;;;;;;;;;;;5094767;28;19923;-73
2022/05/07 03:50:44;;;;;;;;;;;;;;;;;;5095489;28;19916;-73
2022/05/07 03:55:53;;;;;;;;;;;;;;;;;;5095630;28;19923;-73
2022/05/07 03:58:27;;;;;;;;;;;;;;;;;;5095601;28;19916;-73
2022/05/07 04:00:56;;;;;;;;;;;;;;;;;;5095543;28;20414;-74
2022/05/07 04:03:22;;;;;;;;;;;;;;;;;;5096048;28;19923;-73
2022/05/07 04:05:52;;;;;;;;;;;;;;;;;;5095658;28;20303;-73
2022/05/07 04:08:19;;;;;;;;;;;;;;;;;;5113878;28;19915;-73
2022/05/07 04:10:45;;;;;;;;;;;;;;;;;;5094865;28;20289;-73
2022/05/07 04:13:18;;;;;;;;;;;;;;;;;;5095532;28;19927;-73
2022/05/07 04:15:46;;;;;;;;;;;;;;;;;;5098258;28;19916;-73
2022/05/07 04:18:11;;;;;;;;;;;;;;;;;;5117582;28;20049;-73
2022/05/07 04:20:39;;;;;;;;;;;;;;;;;;5099386;28;19915;-73
2022/05/07 04:23:09;;;;;;;;;;;;;;;;;;5099410;28;19968;-73
2022/05/07 04:25:34;;;;;;;;;;;;;;;;;;5099376;28;20010;-73
2022/05/07 04:28:00;;;;;;;;;;;;;;;;;;5117460;28;20059;-73
2022/05/07 04:30:26;;;;;;;;;;;;;;;;;;5116776;28;19916;-74
2022/05/07 04:32:53;;;;;;;;;;;;;;;;;;5099172;28;20373;-73
2022/05/07 04:35:19;;;;;;;;;;;;;;;;;;5099035;28;19916;-74
2022/05/07 04:37:45;;;;;;;;;;;;;;;;;;5099086;28;19916;-74
2022/05/07 04:40:12;;;;;;;;;;;;;;;;;;5082111;28;19941;-74
2022/05/07 04:42:39;;;;;;;;;;;;;;;;;;5099039;28;19916;-74
2022/05/07 04:45:05;;;;;;;;;;;;;;;;;;5098961;28;19954;-73
2022/05/07 04:47:42;;;;;;;;;;;;;;;;;;5098743;28;20015;-73
2022/05/07 04:50:14;;;;;;;;;;;;;;;;;;5098788;28;20250;-74
2022/05/07 04:52:46;;;;;;;;;;;;;;;;;;5098802;28;20006;-74
2022/05/07 04:55:11;;;;;;;;;;;;;;;;;;5098527;28;20318;-74
2022/05/07 04:57:36;;;;;;;;;;;;;;;;;;5098468;28;19998;-74
2022/05/07 05:00:05;;;;;;;;;;;;;;;;;;5098254;28;19999;-74
2022/05/07 05:02:47;;;;;;;;;;;;;;;;;;5098587;28;19920;-74
2022/05/07 05:05:15;;;;;;;;;;;;;;;;;;5098631;28;19916;-74
2022/05/07 05:07:46;;;;;;;;;;;;;;;;;;5098535;28;19916;-74
2022/05/07 05:10:11;;;;;;;;;;;;;;;;;;5098506;28;19922;-73
2022/05/07 05:12:44;;;;;;;;;;;;;;;;;;5098005;28;19939;-74
2022/05/07 05:15:09;;;;;;;;;;;;;;;;;;5116563;28;20323;-74
2022/05/07 05:17:46;;;;;;;;;;;;;;;;;;5098152;28;19968;-74
2022/05/07 05:20:11;;;;;;;;;;;;;;;;;;5098285;28;20014;-74
2022/05/07 05:22:48;;;;;;;;;;;;;;;;;;5098066;28;19920;-74
2022/05/07 05:25:15;;;;;;;;;;;;;;;;;;5097274;28;20354;-75
2022/05/07 05:27:40;;;;;;;;;;;;;;;;;;5097123;28;19965;-75
2022/05/07 05:30:07;;;;;;;;;;;;;;;;;;5098118;28;19926;-75
2022/05/07 05:32:32;;;;;;;;;;;;;;;;;;5097246;28;19922;-76
2022/05/07 05:35:02;;;;;;;;;;;;;;;;;;5097933;28;19920;-75
2022/05/07 05:37:34;;;;;;;;;;;;;;;;;;5097760;28;19916;-75
2022/05/07 05:40:00;;;;;;;;;;;;;;;;;;5116326;28;19989;-76
2022/05/07 05:42:27;;;;;;;;;;;;;;;;;;5097660;28;19915;-76
2022/05/07 05:44:53;;;;;;;;;;;;;;;;;;5116085;28;19968;-76
2022/05/07 05:47:20;;;;;;;;;;;;;;;;;;5097565;28;19927;-76
2022/05/07 05:49:49;;;;;;;;;;;;;;;;;;5097568;28;19934;-76
2022/05/07 05:52:16;;;;;;;;;;;;;;;;;;5081112;28;19916;-76
2022/05/07 05:54:42;;;;;;;;;;;;;;;;;;5097493;28;20288;-75
2022/05/07 05:57:07;;;;;;;;;;;;;;;;;;5096939;28;19923;-76
2022/05/07 05:59:33;;;;;;;;;;;;;;;;;;5096936;28;20310;-76
2022/05/07 06:01:59;;;;;;;;;;;;;;;;;;5097140;28;20386;-77
2022/05/07 06:04:39;;;;;;;;;;;;;;;;;;5096987;28;19916;-77
2022/05/07 06:07:11;;;;;;;;;;;;;;;;;;5115649;28;20274;-77
2022/05/07 06:09:39;;;;;;;;;;;;;;;;;;5097197;28;19958;-76
2022/05/07 06:12:11;;;;;;;;;;;;;;;;;;5097127;28;19919;-74
2022/05/07 06:14:36;;;;;;;;;;;;;;;;;;5097234;28;20011;-76
2022/05/07 06:17:03;;;;;;;;;;;;;;;;;;5096247;28;19955;-78
2022/05/07 06:19:30;;;;;;;;;;;;;;;;;;5096903;28;19962;-75
2022/05/07 06:21:57;;;;;;;;;;;;;;;;;;5097002;28;19961;-78
2022/05/07 06:27:31;;;;;;;;;;;;;;;;;;5096755;28;19938;-77
2022/05/07 06:30:01;;;;;;;;;;;;;;;;;;5096381;28;19920;-76
2022/05/07 06:32:34;;;;;;;;;;;;;;;;;;5094169;28;19963;-76
2022/05/07 06:35:06;;;;;;;;;;;;;;;;;;5096612;28;19998;-76
2022/05/07 06:37:46;;;;;;;;;;;;;;;;;;5096255;28;20013;-76
2022/05/07 06:40:12;;;;;;;;;;;;;;;;;;5096664;28;19916;-76
2022/05/07 06:42:44;;;;;;;;;;;;;;;;;;5096561;28;19923;-76
2022/05/07 06:45:17;;;;;;;;;;;;;;;;;;5096439;28;19915;-77
2022/05/07 06:47:42;;;;;;;;;;;;;;;;;;5096528;28;19915;-76
2022/05/07 06:50:09;;;;;;;;;;;;;;;;;;5096156;28;19965;-76
2022/05/07 06:52:44;;;;;;;;;;;;;;;;;;5096326;28;19983;-77
2022/05/07 06:55:13;;;;;;;;;;;;;;;;;;5114834;28;19998;-77
2022/05/07 06:57:39;;;;;;;;;;;;;;;;;;5114071;28;20266;-78
2022/05/07 07:00:04;;;;;;;;;;;;;;;;;;5097514;28;20120;-77
2022/05/07 07:02:30;;;;;;;;;;;;;;;;;;5114409;28;20051;-77
2022/05/07 07:04:56;;;;;;;;;;;;;;;;;;5114649;28;19968;-77
2022/05/07 07:07:25;;;;;;;;;;;;;;;;;;5114267;28;19923;-77
2022/05/07 07:09:50;;;;;;;;;;;;;;;;;;5114503;28;19916;-76
2022/05/07 07:12:16;;;;;;;;;;;;;;;;;;5114311;28;19915;-77
2022/05/07 07:14:41;;;;;;;;;;;;;;;;;;5114063;28;20323;-76
2022/05/07 07:17:07;;;;;;;;;;;;;;;;;;5114268;28;20527;-76
2022/05/07 07:19:34;;;;;;;;;;;;;;;;;;5114201;28;20031;-76
2022/05/07 07:21:59;;;;;;;;;;;;;;;;;;5079144;28;20353;-76
2022/05/07 07:24:25;;;;;;;;;;;;;;;;;;5113668;28;19958;-76
2022/05/07 07:26:50;;;;;;;;;;;;;;;;;;5114167;28;19920;-76
2022/05/07 07:29:15;;;;;;;;;;;;;;;;;;5114184;28;19916;-77
2022/05/07 07:31:41;;;;;;;;;;;;;;;;;;5113734;28;19915;-76
2022/05/07 07:34:06;;;;;;;;;;;;;;;;;;5114035;28;19931;-77
2022/05/07 07:36:31;;;;;;;;;;;;;;;;;;5096000;28;19922;-76
2022/05/07 07:38:58;;;;;;;;;;;;;;;;;;5114103;28;19959;-78
2022/05/07 07:41:24;;;;;;;;;;;;;;;;;;5114599;28;19916;-79
2022/05/07 07:43:49;;;;;;;;;;;;;;;;;;5114217;28;19923;-77
2022/05/07 07:48:58;;;;;;;;;;;;;;;;;;5113862;28;19949;-77
2022/05/07 07:51:24;;;;;;;;;;;;;;;;;;5118499;28;20014;-77
2022/05/07 07:53:49;;;;;;;;;;;;;;;;;;5100293;28;20414;-76
2022/05/07 07:56:16;;;;;;;;;;;;;;;;;;5099883;28;20131;-76
2022/05/07 07:58:41;;;;;;;;;;;;;;;;;;5118611;28;19920;-77
2022/05/07 08:01:06;;;;;;;;;;;;;;;;;;5119643;28;19920;-76
2022/05/07 08:03:31;;;;;;;;;;;;;;;;;;5118546;28;20265;-76
2022/05/07 08:05:57;;;;;;;;;;;;;;;;;;5118892;28;19916;-76
2022/05/07 08:13:53;;;;;;;;;;;;;;;;;;5117430;28;19973;-75
2022/05/07 08:16:19;;;;;;;;;;;;;;;;;;5097347;28;19920;-76
2022/05/07 08:18:44;;;;;;;;;;;;;;;;;;5098622;28;19924;-77
2022/05/07 08:21:10;;;;;;;;;;;;;;;;;;5097327;28;20011;-77
2022/05/07 08:23:36;;;;;;;;;;;;;;;;;;5097415;28;19916;-76
2022/05/07 08:26:04;;;;;;;;;;;;;;;;;;5097102;28;19926;-76
2022/05/07 08:28:32;;;;;;;;;;;;;;;;;;5097067;28;20376;-77
2022/05/07 08:30:58;;;;;;;;;;;;;;;;;;5097066;28;20430;-78
2022/05/07 08:33:24;;;;;;;;;;;;;;;;;;5114233;28;20014;-76
2022/05/07 08:35:49;;;;;;;;;;;;;;;;;;5117453;28;20014;-76
2022/05/07 08:38:18;;;;;;;;;;;;;;;;;;5099387;28;19916;-76
2022/05/07 08:40:43;;;;;;;;;;;;;;;;;;5097900;28;19923;-76
2022/05/07 08:43:09;;;;;;;;;;;;;;;;;;5117218;28;19920;-75
2022/05/07 08:45:35;;;;;;;;;;;;;;;;;;5117081;28;19947;-76
2022/05/07 08:48:01;;;;;;;;;;;;;;;;;;5117271;28;19916;-76
2022/05/07 08:50:26;;;;;;;;;;;;;;;;;;5117004;28;19918;-76
2022/05/07 08:52:52;;;;;;;;;;;;;;;;;;5117108;28;19920;-76
2022/05/07 08:55:19;;;;;;;;;;;;;;;;;;5116810;28;20387;-76
2022/05/07 08:57:46;;;;;;;;;;;;;;;;;;5116371;27;19958;-77
2022/05/07 09:00:11;;;;;;;;;;;;;;;;;;5117022;28;19920;-76
2022/05/07 09:02:38;;;;;;;;;;;;;;;;;;5116126;28;19927;-76
2022/05/07 09:05:05;;;;;;;;;;;;;;;;;;5116811;28;19985;-76
2022/05/07 09:07:31;;;;;;;;;;;;;;;;;;5116710;28;19973;-77
2022/05/07 09:09:56;;;;;;;;;;;;;;;;;;5116650;28;19919;-78
2022/05/07 09:12:25;;;;;;;;;;;;;;;;;;5115898;28;19923;-77
2022/05/07 09:14:51;;;;;;;;;;;;;;;;;;5116636;28;19978;-76
2022/05/07 09:17:19;;;;;;;;;;;;;;;;;;5116565;28;20523;-76
2022/05/07 09:19:44;;;;;;;;;;;;;;;;;;5098256;28;19915;-76
2022/05/07 09:22:10;;;;;;;;;;;;;;;;;;5116508;28;19920;-77
2022/05/07 09:24:36;;;;;;;;;;;;;;;;;;5116269;28;19920;-76
2022/05/07 09:27:04;;;;;;;;;;;;;;;;;;5116474;28;20364;-76
2022/05/07 09:29:30;;;;;;;;;;;;;;;;;;5116372;28;19998;-76
2022/05/07 09:32:05;;;;;;;;;;;;;;;;;;5116238;28;20375;-76
2022/05/07 09:37:19;;;;;;;;;;;;;;;;;;5116322;28;19916;-77
2022/05/07 09:39:47;;;;;;;;;;;;;;;;;;5116333;28;20369;-77
2022/05/07 09:42:13;;;;;;;;;;;;;;;;;;5115772;28;19962;-77
2022/05/07 09:44:39;;;;;;;;;;;;;;;;;;5115776;28;19915;-77
2022/05/07 09:47:05;;;;;;;;;;;;;;;;;;5116142;28;19938;-76
2022/05/07 09:49:33;;;;;;;;;;;;;;;;;;5115363;28;19965;-77
2022/05/07 09:51:58;;;;;;;;;;;;;;;;;;5116063;28;19918;-77
2022/05/07 09:59:53;;;;;;;;;;;;;;;;;;5115606;28;19922;-76
2022/05/07 10:02:35;;;;;;;;;;;;;;;;;;5115584;28;19924;-78
2022/05/07 10:05:03;;;;;;;;;;;;;;;;;;5116138;28;19977;-77
2022/05/07 10:07:31;;;;;;;;;;;;;;;;;;5115745;28;19916;-77
2022/05/07 10:10:07;;;;;;;;;;;;;;;;;;5115751;28;19915;-76
2022/05/07 10:12:33;;;;;;;;;;;;;;;;;;5117016;28;19955;-78
2022/05/07 10:15:08;;;;;;;;;;;;;;;;;;5115394;28;20353;-76
2022/05/07 10:17:34;;;;;;;;;;;;;;;;;;5116535;28;19915;-77
2022/05/07 10:20:07;;;;;;;;;;;;;;;;;;5115611;28;19923;-77
2022/05/07 10:22:32;;;;;;;;;;;;;;;;;;5096958;28;20312;-77
2022/05/07 10:25:00;;;;;;;;;;;;;;;;;;5116807;28;20032;-78
2022/05/07 10:27:29;;;;;;;;;;;;;;;;;;5115181;28;20265;-77
2022/05/07 10:30:02;;;;;;;;;;;;;;;;;;5115936;28;20257;-77
2022/05/07 10:32:28;;;;;;;;;;;;;;;;;;5115617;28;20007;-76
2022/05/07 10:34:53;;;;;;;;;;;;;;;;;;5114852;28;20015;-76
2022/05/07 10:37:18;;;;;;;;;;;;;;;;;;5115020;28;19916;-77
2022/05/07 10:39:53;;;;;;;;;;;;;;;;;;5115045;28;19970;-78
2022/05/07 10:42:19;;;;;;;;;;;;;;;;;;5115134;28;19958;-78
2022/05/07 10:44:44;;;;;;;;;;;;;;;;;;5096789;28;20343;-78
2022/05/07 10:47:18;;;;;;;;;;;;;;;;;;5114534;28;19959;-78
2022/05/07 10:49:50;;;;;;;;;;;;;;;;;;5114770;28;19923;-78
2022/05/07 10:52:26;;;;;;;;;;;;;;;;;;5096501;28;20357;-78
2022/05/07 10:55:02;;;;;;;;;;;;;;;;;;5096522;28;19924;-78
2022/05/07 10:57:36;;;;;;;;;;;;;;;;;;5114763;28;20441;-77
2022/05/07 11:00:01;;;;;;;;;;;;;;;;;;5096079;28;20387;-78
2022/05/07 11:02:30;;;;;;;;;;;;;;;;;;5114868;28;19927;-78
2022/05/07 11:04:55;;;;;;;;;;;;;;;;;;5115111;28;19961;-77
2022/05/07 11:07:20;;;;;;;;;;;;;;;;;;5114454;28;19923;-77
2022/05/07 11:09:52;;;;;;;;;;;;;;;;;;5114268;28;19967;-77
2022/05/07 11:12:18;;;;;;;;;;;;;;;;;;5096067;28;20299;-78
2022/05/07 11:14:43;;;;;;;;;;;;;;;;;;5114244;28;19945;-77
2022/05/07 11:17:09;;;;;;;;;;;;;;;;;;5114433;28;19922;-77
2022/05/07 11:19:35;;;;;;;;;;;;;;;;;;5113762;28;19969;-77
2022/05/07 11:22:01;;;;;;;;;;;;;;;;;;5111911;28;20021;-79
2022/05/07 11:24:27;;;;;;;;;;;;;;;;;;5076499;28;20262;-77
2022/05/07 11:26:53;;;;;;;;;;;;;;;;;;5094084;28;19938;-77
2022/05/07 11:29:19;;;;;;;;;;;;;;;;;;5094076;28;19916;-78
2022/05/07 11:31:52;;;;;;;;;;;;;;;;;;5094178;28;19969;-78
2022/05/07 11:34:26;;;;;;;;;;;;;;;;;;5094259;28;20366;-77
2022/05/07 11:36:52;;;;;;;;;;;;;;;;;;5113842;28;19916;-78
2022/05/07 11:39:19;;;;;;;;;;;;;;;;;;5114419;28;19931;-77
2022/05/07 11:41:52;;;;;;;;;;;;;;;;;;5114253;28;19916;-78
2022/05/07 11:47:19;;;;;;;;;;;;;;;;;;5113450;28;20016;-77
2022/05/07 11:49:44;;;;;;;;;;;;;;;;;;5113763;28;19916;-77
2022/05/07 11:52:10;;;;;;;;;;;;;;;;;;5114218;28;20001;-77
2022/05/07 11:54:36;;;;;;;;;;;;;;;;;;5113211;28;19955;-77
2022/05/07 11:57:02;;;;;;;;;;;;;;;;;;5114213;28;20274;-77
2022/05/07 11:59:28;;;;;;;;;;;;;;;;;;5095859;28;19915;-77
2022/05/07 12:01:53;;;;;;;;;;;;;;;;;;5114256;28;19920;-77
2022/05/07 12:04:19;;;;;;;;;;;;;;;;;;5114133;28;19916;-77
2022/05/07 12:06:55;;;;;;;;;;;;;;;;;;5095874;28;19920;-78
2022/05/07 12:09:20;;;;;;;;;;;;;;;;;;5115037;28;19969;-79
2022/05/07 12:11:45;;;;;;;;;;;;;;;;;;5097033;28;19919;-77
2022/05/07 12:14:11;;;;;;;;;;;;;;;;;;5115066;28;19920;-78
2022/05/07 12:19:30;;;;;;;;;;;;;;;;;;5114027;28;19973;-77
2022/05/07 12:30:08;;;;;;;;;;;;;;;;;;5113650;28;19916;-78
2022/05/07 12:32:33;;;;;;;;;;;;;;;;;;5095395;28;19918;-78
2022/05/07 12:34:59;;;;;;;;;;;;;;;;;;5113744;28;20290;-77
2022/05/07 12:37:26;;;;;;;;;;;;;;;;;;5116318;28;19922;-77
2022/05/07 12:39:51;;;;;;;;;;;;;;;;;;5117515;28;19920;-77
2022/05/07 12:42:17;;;;;;;;;;;;;;;;;;5116947;28;20315;-77
2022/05/07 12:44:43;;;;;;;;;;;;;;;;;;5117512;28;19922;-77
2022/05/07 12:47:08;;;;;;;;;;;;;;;;;;5117172;28;19961;-76
2022/05/07 12:49:34;;;;;;;;;;;;;;;;;;5099162;28;20407;-79
2022/05/07 12:52:00;;;;;;;;;;;;;;;;;;5118754;28;20358;-77
2022/05/07 12:54:25;;;;;;;;;;;;;;;;;;5116993;28;20293;-76
2022/05/07 12:56:50;;;;;;;;;;;;;;;;;;5118019;28;19920;-78
2022/05/07 12:59:16;;;;;;;;;;;;;;;;;;5117777;28;20436;-78
2022/05/07 13:01:41;;;;;;;;;;;;;;;;;;5118174;28;19927;-80
2022/05/07 13:04:08;;;;;;;;;;;;;;;;;;5118591;28;20332;-77
2022/05/07 13:06:33;;;;;;;;;;;;;;;;;;5115320;28;19922;-78
2022/05/07 13:09:00;;;;;;;;;;;;;;;;;;5115021;28;20006;-78
2022/05/07 13:11:28;;;;;;;;;;;;;;;;;;5115494;28;19966;-78
2022/05/07 13:13:57;;;;;;;;;;;;;;;;;;5098268;28;19920;-78
2022/05/07 13:16:22;;;;;;;;;;;;;;;;;;5115448;28;19916;-78
2022/05/07 13:18:47;;;;;;;;;;;;;;;;;;5115397;28;19916;-79
2022/05/07 13:21:13;;;;;;;;;;;;;;;;;;5115222;28;19912;-78
2022/05/07 13:23:39;;;;;;;;;;;;;;;;;;5114562;28;19923;-78
2022/05/07 13:26:04;;;;;;;;;;;;;;;;;;5076321;28;19923;-78
2022/05/07 13:28:30;;;;;;;;;;;;;;;;;;5094268;28;19920;-78
2022/05/07 13:30:57;;;;;;;;;;;;;;;;;;5095033;28;19961;-78
2022/05/07 13:33:24;;;;;;;;;;;;;;;;;;5109937;28;20382;-78
2022/05/07 13:35:51;;;;;;;;;;;;;;;;;;5117044;28;19962;-78
2022/05/07 13:38:16;;;;;;;;;;;;;;;;;;5116124;28;20374;-78
2022/05/07 13:40:41;;;;;;;;;;;;;;;;;;5116682;28;19923;-78
2022/05/07 13:43:07;;;;;;;;;;;;;;;;;;5117268;28;19951;-78
2022/05/07 13:45:32;;;;;;;;;;;;;;;;;;5115742;28;19916;-78
2022/05/07 13:47:57;;;;;;;;;;;;;;;;;;5115802;28;19915;-77
2022/05/07 13:50:23;;;;;;;;;;;;;;;;;;5118087;28;19966;-76
2022/05/07 13:52:49;;;;;;;;;;;;;;;;;;5116688;28;19916;-77
2022/05/07 13:55:14;;;;;;;;;;;;;;;;;;5116694;28;19961;-80
2022/05/07 13:57:39;;;;;;;;;;;;;;;;;;5116585;28;19915;-76
2022/05/07 14:00:05;;;;;;;;;;;;;;;;;;5115679;28;19938;-75
2022/05/07 14:02:38;;;;;;;;;;;;;;;;;;5115094;28;19919;-75
2022/05/07 14:05:04;;;;;;;;;;;;;;;;;;5115397;28;19916;-75
2022/05/07 14:07:30;;;;;;;;;;;;;;;;;;5115749;28;19950;-76
2022/05/07 14:09:56;;;;;;;;;;;;;;;;;;5115360;28;19915;-75
2022/05/07 14:12:21;;;;;;;;;;;;;;;;;;5114875;28;19919;-76
2022/05/07 14:14:48;;;;;;;;;;;;;;;;;;5097281;28;19920;-75
2022/05/07 14:17:14;;;;;;;;;;;;;;;;;;5097308;28;19919;-75
2022/05/07 14:19:40;;;;;;;;;;;;;;;;;;5096474;28;19923;-76
2022/05/07 14:22:05;;;;;;;;;;;;;;;;;;5115534;28;20365;-76
2022/05/07 14:24:31;;;;;;;;;;;;;;;;;;5114628;28;20305;-76
2022/05/07 14:26:57;;;;;;;;;;;;;;;;;;5115439;28;20292;-76
2022/05/07 14:29:23;;;;;;;;;;;;;;;;;;5115555;28;19919;-76
2022/05/07 14:31:48;;;;;;;;;;;;;;;;;;5115233;28;19922;-76
2022/05/07 14:34:14;;;;;;;;;;;;;;;;;;5115036;28;19942;-76
2022/05/07 14:36:39;;;;;;;;;;;;;;;;;;5114801;28;20315;-75
2022/05/07 14:39:05;;;;;;;;;;;;;;;;;;5114293;28;19922;-76
2022/05/07 14:41:33;;;;;;;;;;;;;;;;;;5115011;28;20387;-76
2022/05/07 14:43:58;;;;;;;;;;;;;;;;;;5114387;28;19962;-76
2022/05/07 14:46:23;;;;;;;;;;;;;;;;;;5114476;28;19959;-76
2022/05/07 14:48:50;;;;;;;;;;;;;;;;;;5114459;28;19919;-77
2022/05/07 14:51:16;;;;;;;;;;;;;;;;;;5114269;28;19916;-76
2022/05/07 14:53:41;;;;;;;;;;;;;;;;;;5114490;28;20369;-76
2022/05/07 14:56:06;;;;;;;;;;;;;;;;;;5113774;28;19920;-76
2022/05/07 14:58:32;;;;;;;;;;;;;;;;;;5096417;28;19923;-76
2022/05/07 15:00:58;;;;;;;;;;;;;;;;;;5095660;28;19916;-76
2022/05/07 15:03:23;;;;;;;;;;;;;;;;;;5114590;28;20288;-76
2022/05/07 15:05:49;;;;;;;;;;;;;;;;;;5113836;28;19916;-76
2022/05/07 15:10:58;;;;;;;;;;;;;;;;;;5113857;28;19916;-76
2022/05/07 15:13:26;;;;;;;;;;;;;;;;;;5113831;28;19926;-76
2022/05/07 15:15:51;;;;;;;;;;;;;;;;;;5113160;28;19919;-76
2022/05/07 15:18:16;;;;;;;;;;;;;;;;;;5113696;28;19969;-77
2022/05/07 15:20:42;;;;;;;;;;;;;;;;;;5113092;28;19966;-76
2022/05/07 15:23:07;;;;;;;;;;;;;;;;;;5114159;28;20281;-78
2022/05/07 15:25:32;;;;;;;;;;;;;;;;;;5113688;28;20014;-76
2022/05/07 15:27:58;;;;;;;;;;;;;;;;;;5113408;28;19915;-75
2022/05/07 15:30:24;;;;;;;;;;;;;;;;;;5095507;28;20403;-76
2022/05/07 15:38:18;;;;;;;;;;;;;;;;;;5113609;28;19916;-76
2022/05/07 15:40:43;;;;;;;;;;;;;;;;;;5116403;28;19923;-79
2022/05/07 15:43:08;;;;;;;;;;;;;;;;;;5117604;28;19915;-82
2022/05/07 15:45:36;;;;;;;;;;;;;;;;;;5098210;28;19916;-79
2022/05/07 15:48:03;;;;;;;;;;;;;;;;;;5116969;28;19922;-84
2022/05/07 15:50:28;;;;;;;;;;;;;;;;;;5083136;28;19924;-77
2022/05/07 15:52:54;;;;;;;;;;;;;;;;;;5117355;28;19971;-81
2022/05/07 15:55:20;;;;;;;;;;;;;;;;;;5115289;28;20296;-76
2022/05/07 15:57:49;;;;;;;;;;;;;;;;;;5098979;28;19916;-76
2022/05/07 16:00:15;;;;;;;;;;;;;;;;;;5093512;28;19938;-76
2022/05/07 16:02:41;;;;;;;;;;;;;;;;;;5102582;28;19926;-75
2022/05/07 16:05:07;;;;;;;;;;;;;;;;;;5113917;28;19920;-75
2022/05/07 16:07:32;;;;;;;;;;;;;;;;;;5095057;28;19915;-77
2022/05/07 16:09:58;;;;;;;;;;;;;;;;;;5114379;28;20365;-77
2022/05/07 16:12:23;;;;;;;;;;;;;;;;;;5118421;28;20004;-78
2022/05/07 16:14:49;;;;;;;;;;;;;;;;;;5099519;28;19919;-76
2022/05/07 16:17:14;;;;;;;;;;;;;;;;;;5117563;28;19916;-75
2022/05/07 16:19:40;;;;;;;;;;;;;;;;;;5117529;28;19915;-76
2022/05/07 16:22:05;;;;;;;;;;;;;;;;;;5116967;28;20262;-76
2022/05/07 16:27:19;;;;;;;;;;;;;;;;;;5117466;28;19999;-76
2022/05/07 16:29:45;;;;;;;;;;;;;;;;;;5116829;28;20381;-76
2022/05/07 16:32:12;;;;;;;;;;;;;;;;;;5082372;28;19916;-76
2022/05/07 16:34:38;;;;;;;;;;;;;;;;;;5098589;28;19946;-76
2022/05/07 16:37:03;;;;;;;;;;;;;;;;;;5117378;28;19923;-76
2022/05/07 16:39:29;;;;;;;;;;;;;;;;;;5116785;28;19915;-76
2022/05/07 16:41:54;;;;;;;;;;;;;;;;;;5116862;28;19998;-76
2022/05/07 16:44:19;;;;;;;;;;;;;;;;;;5098573;28;20306;-76
2022/05/07 16:46:45;;;;;;;;;;;;;;;;;;5117188;28;19965;-75
2022/05/07 16:49:11;;;;;;;;;;;;;;;;;;5116694;28;19923;-76
2022/05/07 16:51:36;;;;;;;;;;;;;;;;;;5117159;28;19912;-76
2022/05/07 16:54:02;;;;;;;;;;;;;;;;;;5116360;28;19973;-76
2022/05/07 16:56:31;;;;;;;;;;;;;;;;;;5117042;28;19916;-76
2022/05/07 16:58:56;;;;;;;;;;;;;;;;;;5098809;28;20400;-76
2022/05/07 17:01:22;;;;;;;;;;;;;;;;;;5116259;28;19971;-76
2022/05/07 17:03:47;;;;;;;;;;;;;;;;;;5116594;28;20403;-75
2022/05/07 17:06:13;;;;;;;;;;;;;;;;;;5098321;28;19916;-75
2022/05/07 17:08:39;;;;;;;;;;;;;;;;;;5116760;28;19961;-76
2022/05/07 17:11:04;;;;;;;;;;;;;;;;;;5115970;28;19915;-76
2022/05/07 17:13:30;;;;;;;;;;;;;;;;;;5115887;28;20277;-77
2022/05/07 17:15:55;;;;;;;;;;;;;;;;;;5115913;28;20544;-76
2022/05/07 17:18:20;;;;;;;;;;;;;;;;;;5098199;28;19920;-77
2022/05/07 17:20:46;;;;;;;;;;;;;;;;;;5116164;28;19923;-76
2022/05/07 17:23:13;;;;;;;;;;;;;;;;;;5115290;28;19960;-76
2022/05/07 17:25:39;;;;;;;;;;;;;;;;;;5116111;28;19916;-75
2022/05/07 17:28:04;;;;;;;;;;;;;;;;;;5116329;28;19916;-75
2022/05/07 17:30:32;;;;;;;;;;;;;;;;;;5116528;28;19922;-77
2022/05/07 17:32:58;;;;;;;;;;;;;;;;;;5097489;28;19922;-77
2022/05/07 17:35:23;;;;;;;;;;;;;;;;;;5116425;28;20300;-76